createdAt,value
2017-08-31T00:00:03.289Z,3.30
2017-08-31T00:02:30.707Z,3.00
2017-08-31T00:04:58.125Z,3.07
2017-08-31T00:07:26.688Z,3.43
2017-08-31T00:09:54.108Z,3.10
2017-08-31T00:12:21.518Z,2.73
2017-08-31T00:14:48.930Z,3.20
2017-08-31T00:17:16.345Z,3.07
2017-08-31T00:19:43.819Z,3.30
2017-08-31T00:22:11.207Z,2.83
2017-08-31T00:24:38.625Z,2.80
2017-08-31T00:27:06.045Z,2.47
2017-08-31T00:29:34.298Z,2.73
2017-08-31T00:32:01.722Z,2.77
2017-08-31T00:34:29.123Z,2.10
2017-08-31T00:36:56.538Z,2.93
2017-08-31T00:39:23.955Z,3.67
2017-08-31T00:41:57.922Z,3.53
2017-08-31T00:44:25.362Z,3.00
2017-08-31T00:46:52.750Z,3.00
2017-08-31T00:49:20.162Z,3.00
2017-08-31T00:51:47.578Z,3.40
2017-08-31T00:54:14.991Z,3.10
2017-08-31T00:56:42.394Z,3.30
2017-08-31T00:59:09.818Z,3.00
2017-08-31T01:01:37.221Z,3.43
2017-08-31T01:04:04.642Z,3.67
2017-08-31T01:06:32.062Z,3.40
2017-08-31T01:08:59.480Z,3.50
2017-08-31T01:11:26.893Z,4.30
2017-08-31T01:13:54.302Z,3.20
2017-08-31T01:16:21.714Z,4.63
2017-08-31T01:18:49.117Z,3.47
2017-08-31T01:21:16.537Z,3.47
2017-08-31T01:23:43.960Z,4.17
2017-08-31T01:26:11.370Z,3.73
2017-08-31T01:28:38.792Z,4.10
2017-08-31T01:31:06.205Z,3.77
2017-08-31T01:33:33.606Z,4.33
2017-08-31T01:36:01.026Z,4.40
2017-08-31T01:38:28.445Z,4.23
2017-08-31T01:40:55.857Z,4.73
2017-08-31T01:43:23.273Z,4.50
2017-08-31T01:45:50.694Z,4.50
2017-08-31T01:48:18.622Z,3.70
2017-08-31T01:50:46.057Z,3.87
2017-08-31T01:53:14.248Z,4.70
2017-08-31T01:55:41.649Z,4.73
2017-08-31T01:58:09.834Z,4.57
2017-08-31T02:00:37.254Z,4.90
2017-08-31T02:03:04.662Z,4.93
2017-08-31T02:05:32.128Z,4.67
2017-08-31T02:07:59.517Z,5.20
2017-08-31T02:10:26.934Z,4.80
2017-08-31T02:12:54.345Z,4.70
2017-08-31T02:15:21.798Z,4.40
2017-08-31T02:17:49.271Z,5.30
2017-08-31T02:20:16.670Z,4.63
2017-08-31T02:22:44.090Z,5.30
2017-08-31T02:25:11.502Z,4.80
2017-08-31T02:27:40.039Z,4.50
2017-08-31T02:30:07.455Z,4.93
2017-08-31T02:32:34.870Z,5.10
2017-08-31T02:35:02.290Z,4.67
2017-08-31T02:37:29.718Z,4.80
2017-08-31T02:39:57.131Z,4.30
2017-08-31T02:42:24.542Z,4.13
2017-08-31T02:44:51.949Z,4.30
2017-08-31T02:47:19.369Z,5.07
2017-08-31T02:49:46.781Z,4.53
2017-08-31T02:52:14.229Z,4.63
2017-08-31T02:54:41.614Z,3.50
2017-08-31T02:57:09.025Z,3.90
2017-08-31T02:59:36.442Z,4.60
2017-08-31T03:02:03.877Z,4.53
2017-08-31T03:04:31.285Z,4.13
2017-08-31T03:06:58.698Z,4.63
2017-08-31T03:09:26.849Z,4.57
2017-08-31T03:11:54.257Z,4.23
2017-08-31T03:14:22.563Z,4.40
2017-08-31T03:16:49.984Z,4.37
2017-08-31T03:19:17.392Z,4.60
2017-08-31T03:21:44.803Z,3.70
2017-08-31T03:24:12.229Z,4.50
2017-08-31T03:26:39.633Z,4.37
2017-08-31T03:29:07.474Z,4.30
2017-08-31T03:31:34.885Z,4.30
2017-08-31T03:34:02.313Z,3.90
2017-08-31T03:36:29.728Z,6.37
2017-08-31T03:38:57.146Z,3.50
2017-08-31T03:41:25.344Z,3.93
2017-08-31T03:43:52.757Z,4.23
2017-08-31T03:46:21.072Z,4.97
2017-08-31T03:48:48.494Z,4.20
2017-08-31T03:51:15.910Z,4.73
2017-08-31T03:53:43.741Z,4.10
2017-08-31T03:56:11.157Z,3.90
2017-08-31T03:58:39.410Z,4.03
2017-08-31T04:01:07.905Z,4.47
2017-08-31T04:03:35.324Z,4.10
2017-08-31T04:06:02.734Z,4.40
2017-08-31T04:08:31.387Z,4.07
2017-08-31T04:10:58.795Z,4.07
2017-08-31T04:13:26.227Z,4.10
2017-08-31T04:15:53.637Z,4.00
2017-08-31T04:18:21.042Z,4.60
2017-08-31T04:20:48.454Z,4.10
2017-08-31T04:23:15.866Z,4.40
2017-08-31T04:25:43.284Z,3.60
2017-08-31T04:28:10.691Z,4.50
2017-08-31T04:30:38.105Z,4.50
2017-08-31T04:33:05.518Z,4.30
2017-08-31T04:35:32.938Z,5.07
2017-08-31T04:38:00.355Z,4.57
2017-08-31T04:40:27.773Z,4.50
2017-08-31T04:42:56.069Z,4.90
2017-08-31T04:45:23.490Z,5.43
2017-08-31T04:47:50.951Z,4.40
2017-08-31T04:50:19.493Z,5.47
2017-08-31T04:52:46.915Z,4.37
2017-08-31T04:55:14.368Z,4.40
2017-08-31T04:57:42.659Z,4.23
2017-08-31T05:00:15.371Z,4.57
2017-08-31T05:02:43.609Z,4.13
2017-08-31T05:05:11.030Z,4.70
2017-08-31T05:07:38.450Z,4.10
2017-08-31T05:10:06.067Z,4.73
2017-08-31T05:12:33.485Z,3.90
2017-08-31T05:15:00.899Z,3.87
2017-08-31T05:17:35.025Z,4.17
2017-08-31T05:20:02.441Z,3.90
2017-08-31T05:22:29.849Z,4.40
2017-08-31T05:24:57.275Z,3.70
2017-08-31T05:27:24.690Z,4.07
2017-08-31T05:29:52.514Z,4.60
2017-08-31T05:32:19.937Z,4.40
2017-08-31T05:34:47.351Z,4.80
2017-08-31T05:37:14.765Z,5.00
2017-08-31T05:39:42.987Z,4.67
2017-08-31T05:42:10.394Z,5.03
2017-08-31T05:44:37.809Z,4.93
2017-08-31T05:47:05.223Z,4.80
2017-08-31T05:49:32.647Z,4.33
2017-08-31T05:52:00.050Z,5.30
2017-08-31T05:54:27.474Z,5.33
2017-08-31T05:56:55.135Z,5.40
2017-08-31T05:59:22.547Z,5.33
2017-08-31T06:01:53.667Z,5.40
2017-08-31T06:04:21.090Z,4.43
2017-08-31T06:06:48.525Z,6.10
2017-08-31T06:09:15.967Z,5.30
2017-08-31T06:11:43.388Z,4.80
2017-08-31T06:14:10.804Z,4.60
2017-08-31T06:16:38.226Z,5.03
2017-08-31T06:19:05.638Z,3.90
2017-08-31T06:21:33.991Z,5.20
2017-08-31T06:24:01.405Z,5.10
2017-08-31T06:26:28.822Z,4.50
2017-08-31T06:28:56.238Z,3.57
2017-08-31T06:31:23.651Z,4.07
2017-08-31T06:33:51.072Z,3.97
2017-08-31T06:36:18.490Z,4.43
2017-08-31T06:38:46.795Z,4.40
2017-08-31T06:41:14.225Z,3.63
2017-08-31T06:43:41.638Z,3.67
2017-08-31T06:46:09.050Z,3.40
2017-08-31T06:48:37.743Z,4.07
2017-08-31T06:51:05.162Z,4.97
2017-08-31T06:53:32.589Z,4.00
2017-08-31T06:55:59.997Z,4.23
2017-08-31T06:58:28.851Z,4.47
2017-08-31T07:00:59.581Z,4.53
2017-08-31T07:03:27.021Z,3.97
2017-08-31T07:05:54.422Z,3.50
2017-08-31T07:08:21.838Z,3.60
2017-08-31T07:10:49.250Z,3.00
2017-08-31T07:13:17.462Z,3.13
2017-08-31T07:15:45.681Z,3.47
2017-08-31T07:18:13.097Z,3.80
2017-08-31T07:20:40.513Z,3.53
2017-08-31T07:23:07.932Z,3.20
2017-08-31T07:25:35.349Z,3.20
2017-08-31T07:28:02.771Z,2.60
2017-08-31T07:30:30.178Z,2.33
2017-08-31T07:32:57.605Z,2.47
2017-08-31T07:35:25.015Z,2.27
2017-08-31T07:37:52.448Z,1.67
2017-08-31T07:40:19.859Z,1.60
2017-08-31T07:42:47.286Z,1.50
2017-08-31T07:45:14.705Z,1.00
2017-08-31T07:47:42.134Z,0.83
2017-08-31T07:50:09.549Z,0.77
2017-08-31T07:52:36.978Z,0.97
2017-08-31T07:55:04.394Z,0.80
2017-08-31T07:57:31.799Z,0.80
2017-08-31T07:59:59.222Z,0.77
2017-08-31T08:02:26.650Z,0.87
2017-08-31T08:04:54.066Z,0.70
2017-08-31T08:07:21.486Z,0.63
2017-08-31T08:09:48.904Z,0.80
2017-08-31T08:12:16.327Z,1.13
2017-08-31T08:14:43.749Z,0.90
2017-08-31T08:17:11.162Z,1.00
2017-08-31T08:19:38.596Z,0.80
2017-08-31T08:22:06.006Z,1.07
2017-08-31T08:24:33.430Z,1.30
2017-08-31T08:27:00.835Z,1.20
2017-08-31T08:29:28.267Z,1.40
2017-08-31T08:31:55.684Z,1.70
2017-08-31T08:34:23.101Z,1.43
2017-08-31T08:36:50.512Z,1.57
2017-08-31T08:39:17.925Z,1.83
2017-08-31T08:41:45.343Z,2.17
2017-08-31T08:44:12.766Z,2.60
2017-08-31T08:46:40.189Z,3.50
2017-08-31T08:49:07.609Z,3.50
2017-08-31T08:51:35.022Z,3.77
2017-08-31T08:54:02.442Z,3.80
2017-08-31T08:56:29.855Z,3.70
2017-08-31T08:58:57.291Z,4.07
2017-08-31T09:01:42.534Z,3.60
2017-08-31T09:04:09.954Z,3.50
2017-08-31T09:06:37.366Z,2.93
2017-08-31T09:09:04.794Z,3.00
2017-08-31T09:11:32.214Z,2.50
2017-08-31T09:13:59.634Z,2.67
2017-08-31T09:16:27.061Z,1.80
2017-08-31T09:18:54.473Z,1.83
2017-08-31T09:21:21.889Z,2.00
2017-08-31T09:23:50.316Z,2.53
2017-08-31T09:26:17.750Z,2.00
2017-08-31T09:28:45.162Z,1.87
2017-08-31T09:31:12.584Z,2.20
2017-08-31T09:33:41.819Z,1.60
2017-08-31T09:36:09.238Z,2.03
2017-08-31T09:38:36.660Z,1.60
2017-08-31T09:41:04.075Z,1.90
2017-08-31T09:43:31.496Z,1.60
2017-08-31T09:45:58.906Z,2.30
2017-08-31T09:48:26.323Z,1.60
2017-08-31T09:50:53.742Z,1.50
2017-08-31T09:53:21.160Z,1.30
2017-08-31T09:55:48.579Z,1.60
2017-08-31T09:58:15.994Z,2.23
2017-08-31T10:00:43.429Z,2.07
2017-08-31T10:03:10.859Z,1.77
2017-08-31T10:05:38.289Z,1.80
2017-08-31T10:08:05.707Z,1.67
2017-08-31T10:10:33.117Z,1.10
2017-08-31T10:13:00.543Z,1.50
2017-08-31T10:15:27.957Z,1.13
2017-08-31T10:17:55.390Z,1.33
2017-08-31T10:20:22.802Z,1.40
2017-08-31T10:22:50.215Z,1.43
2017-08-31T10:25:17.639Z,1.57
2017-08-31T10:27:45.052Z,1.73
2017-08-31T10:30:12.457Z,1.97
2017-08-31T10:32:39.880Z,2.37
2017-08-31T10:35:07.286Z,2.00
2017-08-31T10:37:34.718Z,2.40
2017-08-31T10:40:02.728Z,2.33
2017-08-31T10:42:30.139Z,2.50
2017-08-31T10:44:57.561Z,2.70
2017-08-31T10:47:24.979Z,3.07
2017-08-31T10:49:52.394Z,3.30
2017-08-31T10:52:20.454Z,3.13
2017-08-31T10:54:47.877Z,3.00
2017-08-31T10:57:17.273Z,3.53
2017-08-31T10:59:44.707Z,3.50
2017-08-31T11:02:12.107Z,4.30
2017-08-31T11:04:39.523Z,3.90
2017-08-31T11:07:06.940Z,3.50
2017-08-31T11:09:34.597Z,3.60
2017-08-31T11:12:01.983Z,3.00
2017-08-31T11:14:29.397Z,3.30
2017-08-31T11:16:56.813Z,4.10
2017-08-31T11:19:24.233Z,3.30
2017-08-31T11:21:52.539Z,3.40
2017-08-31T11:24:19.957Z,3.73
2017-08-31T11:26:47.388Z,3.60
2017-08-31T11:29:14.986Z,3.80
2017-08-31T11:31:42.298Z,3.77
2017-08-31T11:34:09.746Z,3.27
2017-08-31T11:36:37.214Z,3.03
2017-08-31T11:39:04.481Z,2.80
2017-08-31T11:41:31.905Z,3.57
2017-08-31T11:44:00.486Z,2.97
2017-08-31T11:46:27.902Z,3.93
2017-08-31T11:48:55.318Z,3.40
2017-08-31T11:51:23.418Z,3.27
2017-08-31T11:53:50.831Z,3.47
2017-08-31T11:56:18.241Z,2.90
2017-08-31T11:58:45.667Z,3.70
2017-08-31T12:01:13.094Z,3.33
2017-08-31T12:03:40.512Z,3.40
2017-08-31T12:06:07.928Z,3.40
2017-08-31T12:08:35.335Z,3.63
2017-08-31T12:11:02.774Z,3.20
2017-08-31T12:13:30.192Z,3.77
2017-08-31T12:15:57.622Z,4.67
2017-08-31T12:18:25.038Z,4.50
2017-08-31T12:20:52.458Z,4.90
2017-08-31T12:23:19.884Z,5.00
2017-08-31T12:25:47.302Z,5.03
2017-08-31T12:28:14.763Z,5.70
2017-08-31T12:30:42.681Z,5.67
2017-08-31T12:33:10.109Z,6.40
2017-08-31T12:35:38.343Z,6.03
2017-08-31T12:38:05.757Z,5.63
2017-08-31T12:40:33.171Z,6.20
2017-08-31T12:43:00.591Z,6.43
2017-08-31T12:45:28.009Z,5.60
2017-08-31T12:47:55.422Z,5.50
2017-08-31T12:50:22.832Z,5.73
2017-08-31T12:52:50.245Z,6.80
2017-08-31T12:55:17.664Z,5.60
2017-08-31T12:57:45.084Z,5.63
2017-08-31T13:00:32.920Z,5.53
2017-08-31T13:03:00.334Z,4.90
2017-08-31T13:05:27.747Z,4.73
2017-08-31T13:07:55.169Z,3.70
2017-08-31T13:10:22.582Z,4.23
2017-08-31T13:12:50.002Z,4.07
2017-08-31T13:15:17.410Z,2.90
2017-08-31T13:17:44.821Z,2.80
2017-08-31T13:20:12.239Z,2.53
2017-08-31T13:22:41.537Z,2.43
2017-08-31T13:25:08.952Z,1.90
2017-08-31T13:27:36.378Z,1.90
2017-08-31T13:30:03.798Z,1.60
2017-08-31T13:32:31.221Z,1.90
2017-08-31T13:34:58.637Z,2.30
2017-08-31T13:37:36.552Z,2.47
2017-08-31T13:40:03.967Z,1.80
2017-08-31T13:42:31.382Z,1.87
2017-08-31T13:44:58.799Z,1.67
2017-08-31T13:47:27.147Z,1.50
2017-08-31T13:49:54.566Z,1.53
2017-08-31T13:52:21.979Z,1.90
2017-08-31T13:54:49.400Z,1.90
2017-08-31T13:57:16.823Z,1.73
2017-08-31T13:59:44.238Z,2.03
2017-08-31T14:02:12.434Z,1.50
2017-08-31T14:04:39.846Z,2.00
2017-08-31T14:07:07.268Z,1.57
2017-08-31T14:09:34.703Z,2.13
2017-08-31T14:12:02.113Z,2.00
2017-08-31T14:14:29.540Z,1.67
2017-08-31T14:16:57.002Z,2.00
2017-08-31T14:19:24.420Z,2.00
2017-08-31T14:21:51.821Z,2.13
2017-08-31T14:24:19.261Z,2.70
2017-08-31T14:26:46.662Z,2.60
2017-08-31T14:29:14.086Z,2.70
2017-08-31T14:31:41.498Z,2.70
2017-08-31T14:34:08.926Z,2.30
2017-08-31T14:36:36.339Z,2.70
2017-08-31T14:39:03.786Z,2.20
2017-08-31T14:41:31.191Z,2.30
2017-08-31T14:43:58.982Z,2.00
2017-08-31T14:46:26.405Z,2.03
2017-08-31T14:48:53.874Z,1.93
2017-08-31T14:51:22.435Z,2.10
2017-08-31T14:53:49.876Z,1.83
2017-08-31T14:56:17.302Z,1.73
2017-08-31T14:58:44.698Z,2.53
2017-08-31T15:01:33.666Z,1.93
2017-08-31T15:04:01.098Z,1.43
2017-08-31T15:06:28.520Z,1.80
2017-08-31T15:08:55.934Z,2.00
2017-08-31T15:11:23.366Z,1.70
2017-08-31T15:13:51.667Z,1.77
2017-08-31T15:16:19.085Z,1.60
2017-08-31T15:18:48.446Z,1.97
2017-08-31T15:21:15.866Z,1.70
2017-08-31T15:23:43.277Z,1.90
2017-08-31T15:26:10.694Z,1.67
2017-08-31T15:28:38.106Z,1.83
2017-08-31T15:31:05.535Z,1.60
2017-08-31T15:33:32.950Z,1.90
2017-08-31T15:36:08.086Z,1.60
2017-08-31T15:38:35.498Z,1.63
2017-08-31T15:41:02.914Z,1.80
2017-08-31T15:43:30.330Z,1.80
2017-08-31T15:45:57.750Z,1.67
2017-08-31T15:48:25.163Z,1.63
2017-08-31T15:50:52.579Z,1.80
2017-08-31T15:53:20.011Z,1.60
2017-08-31T15:55:47.411Z,2.20
2017-08-31T15:58:14.830Z,1.83
2017-08-31T16:00:43.182Z,1.60
2017-08-31T16:03:10.607Z,1.60
2017-08-31T16:05:38.015Z,1.97
2017-08-31T16:08:05.437Z,1.70
2017-08-31T16:10:32.850Z,1.90
2017-08-31T16:13:00.271Z,1.60
2017-08-31T16:15:27.688Z,2.17
2017-08-31T16:17:55.688Z,2.30
2017-08-31T16:20:23.091Z,1.83
2017-08-31T16:22:50.509Z,1.80
2017-08-31T16:25:17.933Z,2.80
2017-08-31T16:27:45.357Z,2.13
2017-08-31T16:30:12.757Z,2.37
2017-08-31T16:32:40.186Z,2.13
2017-08-31T16:35:07.598Z,2.00
2017-08-31T16:37:35.021Z,2.23
2017-08-31T16:40:02.436Z,2.00
2017-08-31T16:42:29.857Z,2.53
2017-08-31T16:44:57.974Z,2.47
2017-08-31T16:47:35.758Z,2.00
2017-08-31T16:50:03.170Z,2.47
2017-08-31T16:52:30.590Z,2.13
2017-08-31T16:54:58.003Z,1.57
2017-08-31T16:57:25.426Z,1.90
2017-08-31T16:59:52.846Z,1.93
2017-08-31T17:02:20.258Z,2.30
2017-08-31T17:04:47.688Z,2.20
2017-08-31T17:07:15.091Z,2.00
2017-08-31T17:09:43.235Z,2.63
2017-08-31T17:12:10.647Z,1.97
2017-08-31T17:14:38.070Z,2.10
2017-08-31T17:17:05.481Z,1.97
2017-08-31T17:19:32.898Z,2.03
2017-08-31T17:22:00.307Z,2.47
2017-08-31T17:24:27.761Z,2.37
2017-08-31T17:26:55.167Z,2.10
2017-08-31T17:29:22.588Z,2.80
2017-08-31T17:31:50.006Z,2.20
2017-08-31T17:34:17.419Z,2.83
2017-08-31T17:36:44.830Z,2.20
2017-08-31T17:39:12.246Z,3.00
2017-08-31T17:41:39.669Z,2.70
2017-08-31T17:44:07.081Z,3.50
2017-08-31T17:46:34.482Z,2.90
2017-08-31T17:49:01.910Z,2.40
2017-08-31T17:51:29.331Z,2.40
2017-08-31T17:53:56.745Z,2.47
2017-08-31T17:56:24.157Z,2.30
2017-08-31T17:58:51.574Z,2.27
2017-08-31T18:01:18.996Z,2.00
2017-08-31T18:03:46.430Z,2.33
2017-08-31T18:06:13.838Z,2.27
2017-08-31T18:08:41.244Z,2.00
2017-08-31T18:11:08.662Z,2.40
2017-08-31T18:13:36.074Z,2.53
2017-08-31T18:16:03.698Z,2.50
2017-08-31T18:18:31.116Z,2.50
2017-08-31T18:20:58.544Z,2.30
2017-08-31T18:23:25.960Z,2.70
2017-08-31T18:25:53.380Z,2.73
2017-08-31T18:28:20.795Z,2.70
2017-08-31T18:30:48.213Z,3.43
2017-08-31T18:33:15.634Z,2.57
2017-08-31T18:35:43.055Z,2.83
2017-08-31T18:38:11.258Z,2.90
2017-08-31T18:40:38.679Z,3.13
2017-08-31T18:43:06.090Z,2.43
2017-08-31T18:45:33.520Z,2.20
2017-08-31T18:48:00.936Z,2.67
2017-08-31T18:50:28.366Z,2.53
2017-08-31T18:52:55.776Z,2.67
2017-08-31T18:55:23.203Z,2.33
2017-08-31T18:57:50.612Z,3.07
2017-08-31T19:00:18.786Z,2.60
2017-08-31T19:02:46.203Z,3.27
2017-08-31T19:05:13.613Z,2.73
2017-08-31T19:07:41.037Z,3.03
2017-08-31T19:10:08.451Z,3.27
2017-08-31T19:12:35.875Z,2.73
2017-08-31T19:15:04.291Z,3.40
2017-08-31T19:17:31.695Z,3.10
2017-08-31T19:19:59.105Z,3.20
2017-08-31T19:22:26.537Z,3.70
2017-08-31T19:24:53.963Z,3.77
2017-08-31T19:27:27.766Z,4.07
2017-08-31T19:29:55.190Z,4.23
2017-08-31T19:32:22.595Z,3.87
2017-08-31T19:34:50.072Z,4.00
2017-08-31T19:37:23.843Z,4.20
2017-08-31T19:39:51.258Z,4.03
2017-08-31T19:42:18.674Z,4.47
2017-08-31T19:44:46.081Z,4.33
2017-08-31T19:47:13.499Z,4.30
2017-08-31T19:49:40.916Z,3.93
2017-08-31T19:52:08.342Z,4.30
2017-08-31T19:54:35.749Z,4.43
2017-08-31T19:57:03.191Z,4.07
2017-08-31T19:59:30.598Z,4.30
2017-08-31T20:01:58.013Z,4.10
2017-08-31T20:04:25.462Z,3.93
2017-08-31T20:06:52.881Z,4.63
2017-08-31T20:09:20.298Z,3.83
2017-08-31T20:11:48.700Z,4.30
2017-08-31T20:14:16.106Z,4.53
2017-08-31T20:16:43.523Z,4.00
2017-08-31T20:19:11.697Z,3.20
2017-08-31T20:21:39.105Z,3.10
2017-08-31T20:24:06.534Z,3.67
2017-08-31T20:26:33.950Z,3.80
2017-08-31T20:29:01.368Z,3.70
2017-08-31T20:31:28.778Z,3.63
2017-08-31T20:33:56.953Z,3.80
2017-08-31T20:36:24.374Z,3.63
2017-08-31T20:38:51.781Z,4.10
2017-08-31T20:41:19.192Z,4.07
2017-08-31T20:43:47.550Z,4.17
2017-08-31T20:46:18.808Z,3.87
2017-08-31T20:48:46.291Z,3.90
2017-08-31T20:51:13.698Z,4.03
2017-08-31T20:53:41.124Z,4.20
2017-08-31T20:56:08.771Z,4.10
2017-08-31T20:58:36.176Z,3.80
2017-08-31T21:01:03.589Z,3.87
2017-08-31T21:03:31.006Z,3.10
2017-08-31T21:05:58.414Z,3.60
2017-08-31T21:08:25.830Z,3.50
2017-08-31T21:10:53.248Z,3.10
2017-08-31T21:13:20.663Z,3.97
2017-08-31T21:15:48.072Z,4.27
2017-08-31T21:18:15.486Z,3.70
2017-08-31T21:20:42.885Z,4.40
2017-08-31T21:23:10.307Z,4.40
2017-08-31T21:25:37.714Z,4.73
2017-08-31T21:28:05.136Z,5.00
2017-08-31T21:30:32.550Z,5.43
2017-08-31T21:32:59.975Z,6.20
2017-08-31T21:35:27.431Z,7.73
2017-08-31T21:37:55.582Z,7.43
2017-08-31T21:40:22.993Z,7.63
2017-08-31T21:42:50.398Z,7.27
2017-08-31T21:45:17.822Z,7.40
2017-08-31T21:47:46.365Z,7.40
2017-08-31T21:50:13.779Z,7.80
2017-08-31T21:52:41.602Z,9.17
2017-08-31T21:55:09.028Z,9.03
2017-08-31T21:57:36.443Z,10.87
2017-08-31T22:00:03.862Z,9.90
2017-08-31T22:02:31.270Z,10.80
2017-08-31T22:04:58.686Z,8.67
2017-08-31T22:07:26.111Z,10.43
2017-08-31T22:09:53.533Z,11.37
2017-08-31T22:12:20.953Z,10.83
2017-08-31T22:14:48.996Z,10.53
2017-08-31T22:17:16.448Z,9.83
2017-08-31T22:19:43.866Z,9.83
2017-08-31T22:22:11.289Z,10.70
2017-08-31T22:24:38.706Z,12.60
2017-08-31T22:27:06.137Z,11.93
2017-08-31T22:29:33.542Z,12.60
2017-08-31T22:32:00.959Z,11.77
2017-08-31T22:34:28.391Z,12.60
2017-08-31T22:36:55.799Z,11.43
2017-08-31T22:39:23.218Z,11.47
2017-08-31T22:41:50.636Z,12.23
2017-08-31T22:44:18.057Z,12.37
2017-08-31T22:46:55.071Z,13.20
2017-08-31T22:49:22.486Z,12.83
2017-08-31T22:51:50.614Z,12.50
2017-08-31T22:54:20.949Z,14.50
2017-08-31T22:56:52.430Z,13.00
2017-08-31T22:59:19.853Z,15.50
2017-08-31T23:01:47.270Z,15.77
2017-08-31T23:04:14.707Z,15.27
2017-08-31T23:06:42.134Z,15.23
2017-08-31T23:09:10.336Z,13.73
2017-08-31T23:11:38.476Z,14.57
2017-08-31T23:14:05.900Z,16.70
2017-08-31T23:16:33.317Z,14.70
2017-08-31T23:19:00.743Z,16.53
2017-08-31T23:21:28.158Z,15.03
2017-08-31T23:23:55.588Z,14.07
2017-08-31T23:26:23.006Z,14.53
2017-08-31T23:28:51.177Z,12.57
2017-08-31T23:31:18.613Z,14.23
2017-08-31T23:33:46.026Z,13.60
2017-08-31T23:36:13.467Z,13.17
2017-08-31T23:38:40.874Z,13.47
2017-08-31T23:41:08.579Z,13.37
2017-08-31T23:43:35.969Z,12.37
2017-08-31T23:46:03.401Z,10.80
2017-08-31T23:48:30.817Z,12.23
2017-08-31T23:50:58.233Z,12.47
2017-08-31T23:53:25.655Z,11.67
2017-08-31T23:55:53.071Z,14.43
2017-08-31T23:58:20.488Z,12.57
